神戸空港の過去48時間の天気

神戸空港 (Kobe)

現在時刻: 9/28 18:03 JST (9/28 09:03 UTC) 以下の時間は現地時間です。

過去48時間のMETAR気象情報
時間 風向 風速(m/s) 視程 気温(℃) 湿度(%) 気圧(hPa) 天気現象
28 17:00 北北東 5 10km以上 25 50 1011
28 16:00 北北東 5 10km以上 25 50 1011
28 15:00 3 10km以上 26 48 1011
28 14:00 北東 5 10km以上 25 54 1011
28 13:00 4 10km以上 25 57 1012
28 12:00 北東 3 10km以上 25 61 1013
28 11:00 北東 5 10km以上 24 57 1013
28 10:00 4 10km以上 23 61 1014
28 09:00 北北西 4 10km以上 22 65 1014
28 08:00 2 10km以上 21 69 1014
28 07:00 北西 5 10km以上 20 68 1014
27 22:00 4 10km以上 21 69 1014
27 21:00 北西 5 10km以上 21 69 1014
27 20:00 北西 5 10km以上 21 69 1013
27 19:00 北北西 6 10km以上 21 69 1012
27 18:00 北北西 7 10km以上 22 60 1012
27 17:00 北北西 8 10km以上 23 61 1011
27 16:00 5 10km以上 25 47 1011
27 15:00 7 10km以上 26 48 1011
27 14:00 7 10km以上 26 48 1011
27 13:00 北北西 6 10km以上 25 54 1011 周辺でしゅう雨
27 12:00 8 10km以上 24 61 1012 弱いしゅう雨
27 11:00 北北東 2 10km以上 25 57 1012
27 10:00 北北西 5 10km以上 25 57 1012
27 09:00 北西 5 10km以上 25 61 1012
27 08:00 不定 2 10km以上 24 65 1011
27 07:00 北西 5 10km以上 22 73 1011 周辺でしゅう雨
26 22:00 北西 3 10km以上 23 73 1010
26 21:00 北西 4 10km以上 23 78 1009
26 20:00 北北西 4 10km以上 23 78 1009
26 19:00 北西 5 10km以上 24 74 1008
RJBE 280800Z 03009KT 350V060 9999 FEW030 SCT/// 25/14 Q1011
RJBE 280700Z 03009KT 350V050 9999 FEW030 SCT045 25/14 Q1011
RJBE 280600Z 01006KT 340V050 9999 FEW030 SCT045 26/14 Q1011
RJBE 280500Z 05010KT 9999 FEW030 SCT045 25/15 Q1011
RJBE 280400Z 35007KT 290V030 9999 FEW030 BKN040 25/16 Q1012
RJBE 280300Z 05005KT 350V110 9999 FEW025 BKN035 25/17 Q1013
RJBE 280200Z 05010KT 9999 FEW025 BKN035 24/15 Q1013
RJBE 280100Z 35008KT 310V020 9999 FEW025 BKN035 23/15 Q1014
RJBE 280000Z 33008KT 9999 FEW025 BKN035 22/15 Q1014
RJBE 272300Z 35004KT 300V050 9999 FEW025 SCT035 BKN050 21/15 Q1014
RJBE 272200Z 32009KT 9999 FEW025 20/14 Q1014
RJBE 271300Z 35007KT 9999 FEW030 BKN070 21/15 Q1014
RJBE 271200Z 32009KT 9999 FEW030 BKN060 21/15 Q1014
RJBE 271100Z 32009KT 9999 FEW025 21/15 Q1013
RJBE 271000Z 33011KT 9999 FEW025 21/15 Q1012
RJBE 270900Z 34013KT 9999 FEW025 SCT070 22/14 Q1012
RJBE 270800Z 33016KT 9999 FEW025 SCT060 23/15 Q1011
RJBE 270700Z 36010KT 9999 FEW030 SCT060 25/13 Q1011
RJBE 270600Z 35013KT 9999 FEW030 BKN060 26/14 Q1011
RJBE 270500Z 35013KT 9999 FEW030 SCT070 26/14 Q1011
RJBE 270400Z 34011KT 9999 VCSH FEW025 SCT040 BKN060 25/15 Q1011
RJBE 270300Z 35015KT 9999 -SHRA FEW025 BKN040 BKN060 24/16 Q1012
RJBE 270200Z 02004KT 300V100 9999 FEW025 BKN040 25/16 Q1012
RJBE 270100Z 33009KT 9999 FEW020 SCT035 BKN090 25/16 Q1012
RJBE 270000Z 31009KT 9999 FEW025 BKN040 25/17 Q1012
RJBE 262300Z VRB04KT 9999 FEW025 SCT040 24/17 Q1011
RJBE 262200Z 31009KT 9999 VCSH FEW020 BKN035 22/17 Q1011
RJBE 261300Z 32006KT 9999 FEW025 BKN/// 23/18 Q1010
RJBE 261200Z 32007KT 9999 FEW025 BKN/// 23/19 Q1009
RJBE 261100Z 33008KT 9999 FEW020 SCT040 BKN090 23/19 Q1009
RJBE 261000Z 32009KT 280V350 9999 FEW015 SCT040 BKN090 24/19 Q1008